This is the latest recevied weather packets stored in our database for station/object DL4ABR-6. If no packets are shown the sender has not sent any weather packets the latest 10 day(s).
| Time | Temp. | Humidity | Pressure | Rain* | Wind** | Luminosity | Snow |
|---|---|---|---|---|---|---|---|
| 1777917280 | 18.89° C | 67% | 1007.8 hPa | 0 mm | - | - | - |
| 1777916410 | 19.44° C | 66% | 1007.4 hPa | 0 mm | - | - | - |
| 1777915595 | 19.44° C | 63% | 1007.6 hPa | 0 mm | - | - | - |
| 1777914780 | 20° C | 62% | 1007.4 hPa | 0 mm | - | - | - |
| 1777913880 | 20.56° C | 60% | 1007.5 hPa | 0 mm | - | - | - |
| 1777913120 | 21.11° C | 60% | 1007.6 hPa | 0 mm | - | - | - |
| 1777912330 | 21.67° C | 58% | 1007.5 hPa | 0 mm | - | - | - |
| 1777911460 | 21.67° C | 59% | 1007.5 hPa | 0 mm | - | - | - |
| 1777910600 | 22.22° C | 57% | 1007.6 hPa | 0 mm | - | - | - |
| 1777909780 | 21.67° C | 57% | 1007.5 hPa | 0 mm | - | - | - |
| 1777908880 | 22.22° C | 57% | 1007.6 hPa | 0 mm | - | - | - |
| 1777908148 | 21.67° C | 59% | 1007.6 hPa | 0 mm | - | - | - |
| 1777907325 | 21.11° C | 59% | 1007.7 hPa | 0 mm | - | - | - |
| 1777906465 | 21.67° C | 58% | 1007.7 hPa | 0 mm | - | - | - |
| 1777905705 | 22.78° C | 55% | 1008 hPa | 0 mm | - | - | - |
| 1777904895 | 22.78° C | 56% | 1008 hPa | 0 mm | - | - | - |
| 1777904025 | 22.78° C | 57% | 1008.2 hPa | 0 mm | - | - | - |
| 1777903125 | 22.22° C | 58% | 1008.3 hPa | 0 mm | - | - | - |
| 1777902270 | 21.11° C | 67% | 1008.3 hPa | 0 mm | - | - | - |
| 1777901545 | 21.11° C | 64% | 1008.3 hPa | 0 mm | - | - | - |
| 1777900815 | 21.11° C | 60% | 1008.4 hPa | 0 mm | - | - | - |
| 1777900075 | 21.11° C | 60% | 1008.4 hPa | 0 mm | - | - | - |
| 1777899210 | 23.89° C | 49% | 1008.5 hPa | 0 mm | - | - | - |
| 1777898310 | 23.33° C | 51% | 1008.5 hPa | 0 mm | - | - | - |
| 1777897555 | 22.22° C | 52% | 1008.6 hPa | 0 mm | - | - | - |
* Rain since midnight (hover to see other rain measurements)
** Current wind speed in m/s (hover to see current wind gust speed)